Time;durP1;ratioP1;P1;durP2;ratioP2;P2;SDS_P1;SDS_P2;PMS_P1;PMS_P2;Temp;Humidity;BMP_temperature;BMP_pressure;BME280_temperature;BME280_humidity;BME280_pressure;Samples;Min_cycle;Max_cycle;Signal;HPM_P1;HPM_P2
2023/05/20 00:14:00;;;;;;;10.70;4.30;;;;;;;12.66;72.43;102351.78;4960595;28;20057;-88
2023/05/20 00:17:27;;;;;;;10.25;4.63;;;;;;;12.78;72.17;102369.00;4955386;28;20051;-88
2023/05/20 00:20:25;;;;;;;9.40;4.38;;;;;;;12.73;72.61;102368.19;4930231;28;20043;-88
2023/05/20 00:23:08;;;;;;;9.55;4.40;;;;;;;12.66;72.75;102376.06;4931853;29;20707;-89
2023/05/20 00:26:03;;;;;;;12.10;4.45;;;;;;;12.49;72.45;102345.81;4934149;29;20040;-89
2023/05/20 00:32:36;;;;;;;13.65;4.90;;;;;;;12.58;72.64;102369.19;4918048;29;20125;-89
2023/05/20 00:35:39;;;;;;;9.27;4.55;;;;;;;12.60;73.12;102370.91;4928587;29;20403;-88
2023/05/20 00:43:19;;;;;;;8.60;4.60;;;;;;;12.51;73.47;102370.97;4964398;28;20042;-73
2023/05/20 01:06:11;;;;;;;9.82;4.43;;;;;;;12.35;75.88;102358.94;4897824;28;20403;-88
2023/05/20 01:12:36;;;;;;;;;;;;;;;;;;;;;
2023/05/20 01:19:05;;;;;;;11.10;4.60;;;;;;;12.05;76.72;102330.53;4872201;28;20027;-88
2023/05/20 01:29:14;;;;;;;9.20;4.78;;;;;;;11.98;78.35;102342.72;4843793;29;20141;-88
2023/05/20 01:32:23;;;;;;;9.07;4.93;;;;;;;11.88;77.41;102326.28;4882452;29;20044;-88
2023/05/20 01:35:36;;;;;;;10.02;4.78;;;;;;;11.86;78.37;102325.47;4847020;29;20553;-88
2023/05/20 01:38:28;;;;;;;10.82;5.30;;;;;;;11.80;78.17;102316.84;4871453;29;20085;-88
2023/05/20 01:41:19;;;;;;;14.50;4.97;;;;;;;11.94;77.79;102342.75;4864965;29;20056;-88
2023/05/20 01:44:14;;;;;;;13.15;5.22;;;;;;;11.79;78.34;102321.16;4850873;29;20217;-88
2023/05/20 01:50:33;;;;;;;11.38;5.25;;;;;;;11.75;79.43;102319.44;4869817;29;20053;-88
2023/05/20 01:53:21;;;;;;;11.60;5.43;;;;;;;11.85;79.41;102351.44;4872333;29;20052;-88
2023/05/20 01:59:35;;;;;;;12.05;5.35;;;;;;;11.83;80.75;102333.25;4894559;29;20040;-88
2023/05/20 02:02:32;;;;;;;12.07;5.30;;;;;;;11.74;79.66;102335.88;4888356;29;20131;-88
2023/05/20 02:05:48;;;;;;;11.02;5.22;;;;;;;11.78;80.33;102337.63;4903668;28;20040;-88
2023/05/20 02:09:00;;;;;;;10.05;5.00;;;;;;;11.64;79.91;102322.94;4852148;29;20045;-88
2023/05/20 02:12:15;;;;;;;;;;;;;;;;;;;;;
2023/05/20 02:15:29;;;;;;;11.63;5.53;;;;;;;11.72;80.46;102336.75;4826925;29;20491;-88
2023/05/20 02:18:25;;;;;;;10.10;5.03;;;;;;;11.52;81.91;102310.88;4827056;29;20054;-88
2023/05/20 02:21:25;;;;;;;11.57;5.28;;;;;;;11.61;81.12;102325.53;4864277;29;20037;-88
2023/05/20 02:24:21;;;;;;;9.50;5.10;;;;;;;11.54;82.46;102314.28;4859092;28;20047;-88
2023/05/20 02:26:59;;;;;;;10.07;5.00;;;;;;;11.42;82.07;102304.81;4943938;28;20042;-88
2023/05/20 02:33:01;;;;;;;11.13;5.30;;;;;;;11.52;83.41;102320.38;4903039;29;20044;-88
2023/05/20 02:36:24;;;;;;;11.55;5.10;;;;;;;11.43;82.20;102303.09;4902948;29;20048;-88
2023/05/20 02:42:43;;;;;;;13.40;5.35;;;;;;;11.40;82.06;102298.78;4860673;29;20043;-88
2023/05/20 02:46:10;;;;;;;;;;;;;;;;;;;;;
2023/05/20 02:49:21;;;;;;;8.98;4.90;;;;;;;11.54;82.67;102327.28;4903493;29;20056;-88
2023/05/20 02:55:45;;;;;;;9.63;5.15;;;;;;;11.50;84.40;102325.56;4886763;29;20042;-88
2023/05/20 02:58:49;;;;;;;11.73;5.30;;;;;;;11.37;84.18;102313.50;4907588;29;20134;-88
2023/05/20 03:08:28;;;;;;;10.70;5.90;;;;;;;11.34;84.12;102310.91;4923217;28;20068;-88
2023/05/20 03:11:29;;;;;;;9.90;5.35;;;;;;;11.37;85.22;102324.75;4944688;28;20046;-88
2023/05/20 03:18:11;;;;;;;11.30;5.20;;;;;;;11.34;84.67;102321.28;4920414;28;20085;-88
2023/05/20 03:21:43;;;;;;;;;;;;;;;;;;;;;
2023/05/20 03:24:51;;;;;;;10.32;5.55;;;;;;;11.28;85.98;102310.94;4956389;28;20035;-88
2023/05/20 03:31:28;;;;;;;10.48;5.60;;;;;;;11.14;85.81;102305.78;4934005;29;20130;-89
2023/05/20 03:38:06;;;;;;;;;;;;;;;;;;;;;
2023/05/20 04:10:45;;;;;;;;;;;;;;;;;;;;;
2023/05/20 04:31:04;;;;;;;14.88;5.93;;;;;;;11.04;89.22;102317.94;4880442;29;19929;-88
2023/05/20 04:37:55;;;;;;;12.52;5.68;;;;;;;10.94;90.46;102300.63;4847835;29;20036;-88
2023/05/20 04:44:27;;;;;;;9.27;5.65;;;;;;;11.29;91.12;102318.72;4883538;29;20071;-88
2023/05/20 04:47:20;;;;;;;10.85;6.22;;;;;;;11.14;90.09;102286.75;4845535;29;20534;-88
2023/05/20 05:01:40;;;;;;;11.68;5.53;;;;;;;11.61;88.74;102331.59;4876446;29;20071;-88
2023/05/20 05:04:57;;;;;;;14.45;6.18;;;;;;;11.61;89.13;102307.34;4898535;29;20066;-88
2023/05/20 05:07:47;;;;;;;15.15;6.13;;;;;;;11.64;88.62;102295.22;4834275;29;20471;-88
2023/05/20 05:10:45;;;;;;;10.95;6.32;;;;;;;11.67;87.81;102291.75;4866449;29;20063;-88
2023/05/20 05:13:21;;;;;;;11.30;6.13;;;;;;;11.74;88.57;102288.25;4902060;29;20170;-88
2023/05/20 05:16:37;;;;;;;11.98;6.22;;;;;;;11.95;87.84;102306.31;4898879;29;20040;-88
2023/05/20 05:19:12;;;;;;;12.27;5.95;;;;;;;12.04;87.99;102298.50;4849097;29;20040;-88
2023/05/20 05:22:02;;;;;;;12.18;5.80;;;;;;;12.19;88.01;102295.78;4900364;29;20040;-88
2023/05/20 05:24:36;;;;;;;11.38;6.10;;;;;;;12.32;86.10;102275.75;4917483;29;20207;-88
2023/05/20 05:27:04;;;;;;;;;;;;;;;12.72;87.26;102297.09;4907464;29;20417;-88
2023/05/20 05:29:56;;;;;;;10.70;5.95;;;;;;;12.81;88.18;102272.72;4908019;29;19923;-88
2023/05/20 05:32:43;;;;;;;10.18;6.20;;;;;;;13.21;83.97;102300.09;4906259;29;20040;-90
2023/05/20 05:35:24;;;;;;;9.52;5.68;;;;;;;13.30;83.02;102275.69;4920171;29;20509;-89
2023/05/20 05:38:43;;;;;;;10.20;5.72;;;;;;;13.66;82.51;102290.84;4907175;29;20052;-89
2023/05/20 05:41:26;;;;;;;11.13;6.25;;;;;;;14.00;81.38;102278.19;4901973;29;20094;-89
2023/05/20 05:44:06;;;;;;;10.32;6.28;;;;;;;14.37;78.32;102275.00;4911379;29;20040;-87
2023/05/20 05:46:47;;;;;;;9.23;5.38;;;;;;;14.53;78.42;102271.31;4905239;29;20136;-87
2023/05/20 05:49:29;;;;;;;9.57;6.05;;;;;;;14.87;76.87;102305.50;4912524;28;20082;-88
2023/05/20 05:55:17;;;;;;;9.90;5.57;;;;;;;14.86;75.02;102304.66;4907370;29;20044;-87
2023/05/20 05:57:52;;;;;;;8.85;5.35;;;;;;;14.91;76.87;102305.41;4931973;28;20080;-87
2023/05/20 06:00:41;;;;;;;9.18;5.40;;;;;;;14.87;75.79;102267.22;4921726;29;20052;-87
2023/05/20 06:03:47;;;;;;;9.43;5.78;;;;;;;14.98;74.54;102291.34;4938080;28;20043;-87
2023/05/20 06:06:20;;;;;;;;;;;;;;;15.20;75.97;102297.03;4939856;28;20043;-88
2023/05/20 06:09:27;;;;;;;9.27;4.90;;;;;;;15.27;73.26;102303.00;4930981;28;20486;-88
2023/05/20 06:12:18;;;;;;;10.90;5.25;;;;;;;15.54;72.22;102299.00;4929196;28;20047;-87
2023/05/20 06:15:02;;;;;;;;;;;;;;;;;;;;;
2023/05/20 06:17:46;;;;;;;8.23;5.20;;;;;;;15.56;70.14;102300.66;4948403;28;20047;-87
2023/05/20 06:20:27;;;;;;;7.13;5.07;;;;;;;15.78;68.56;102296.72;4928486;28;21218;-86
2023/05/20 06:23:00;;;;;;;8.57;5.00;;;;;;;15.73;72.69;102272.44;4930299;28;20050;-88
2023/05/20 06:25:31;;;;;;;8.50;5.38;;;;;;;15.71;68.75;102278.56;4930537;28;20043;-87
2023/05/20 06:28:26;;;;;;;8.98;5.50;;;;;;;15.53;70.59;102273.75;4941593;28;20038;-87
2023/05/20 06:31:21;;;;;;;;;;;;;;;;;;;;;
2023/05/20 06:34:11;;;;;;;11.23;5.55;;;;;;;15.34;71.77;102279.34;4947719;28;20035;-88
2023/05/20 06:36:53;;;;;;;8.98;4.88;;;;;;;15.05;69.23;102254.66;4929409;28;20039;-88
2023/05/20 06:39:52;;;;;;;7.97;5.45;;;;;;;15.10;72.00;102265.88;4927437;28;20164;-87
2023/05/20 06:42:43;;;;;;;11.02;5.93;;;;;;;15.23;72.73;102264.75;4945115;28;20799;-87
2023/05/20 06:45:14;;;;;;;7.65;4.85;;;;;;;15.61;72.02;102270.09;4931038;28;20942;-87
2023/05/20 06:47:49;;;;;;;8.93;5.35;;;;;;;15.73;71.01;102248.91;4941564;28;20046;-87
2023/05/20 06:50:42;;;;;;;7.10;5.10;;;;;;;15.91;68.96;102249.34;4929372;28;20054;-88
2023/05/20 06:53:16;;;;;;;10.68;5.03;;;;;;;16.06;71.48;102235.91;4924046;28;20049;-87
2023/05/20 06:55:58;;;;;;;6.90;4.70;;;;;;;16.70;68.79;102252.66;4936379;28;20122;-87
2023/05/20 06:58:31;;;;;;;11.10;5.68;;;;;;;17.02;64.14;102250.00;4932989;28;20138;-87
2023/05/20 07:01:14;;;;;;;8.50;4.67;;;;;;;17.46;64.11;102226.91;4927029;28;20403;-87
2023/05/20 07:03:55;;;;;;;8.82;4.75;;;;;;;18.03;59.43;102250.47;4938294;28;20130;-87
2023/05/20 07:06:47;;;;;;;7.05;4.47;;;;;;;18.59;59.92;102219.72;4928875;28;20511;-87
2023/05/20 07:20:41;;;;;;;6.60;4.60;;;;;;;19.86;51.85;102236.88;5100293;23;20081;-81
2023/05/20 07:23:07;;;;;;;7.82;4.38;;;;;;;20.60;51.38;102225.03;4968989;28;20047;-81
2023/05/20 07:25:32;;;;;;;7.57;4.50;;;;;;;20.99;47.11;102227.69;5095802;23;20054;-81
2023/05/20 07:35:38;;;;;;;8.32;4.47;;;;;;;21.70;48.59;102216.41;5284912;23;20063;-94
2023/05/20 07:43:12;;;;;;;8.48;4.18;;;;;;;23.10;44.92;102226.00;5055735;23;1425847;-79
2023/05/20 07:45:41;;;;;;;7.60;4.32;;;;;;;23.40;42.16;102220.81;4997449;28;20049;-80
2023/05/20 07:48:22;;;;;;;6.22;4.35;;;;;;;24.15;40.63;102214.78;5257646;23;20655;-88
2023/05/20 07:51:19;;;;;;;6.00;4.05;;;;;;;25.22;42.05;102208.28;4948397;28;20505;-88
2023/05/20 07:57:08;;;;;;;9.32;4.20;;;;;;;25.94;35.83;102211.47;4952157;28;20049;-88
2023/05/20 07:59:56;;;;;;;7.22;4.20;;;;;;;25.66;36.95;102198.31;4968264;28;20050;-88
2023/05/20 08:02:35;;;;;;;6.13;4.38;;;;;;;25.08;36.98;102215.31;4966805;28;20043;-88
2023/05/20 08:05:13;;;;;;;6.03;4.65;;;;;;;24.11;38.66;102186.72;4950738;28;20042;-88
2023/05/20 08:07:58;;;;;;;6.32;4.32;;;;;;;23.63;42.18;102206.31;4947693;28;20164;-88
2023/05/20 08:10:34;;;;;;;5.68;4.35;;;;;;;23.27;41.40;102206.53;4950009;28;20429;-88
2023/05/20 08:13:06;;;;;;;7.07;4.10;;;;;;;22.55;40.72;102190.16;4950617;28;20046;-88
2023/05/20 08:15:59;;;;;;;7.03;4.05;;;;;;;22.35;42.72;102201.78;4949993;28;20436;-88
2023/05/20 08:18:45;;;;;;;9.43;4.28;;;;;;;21.90;43.56;102187.28;4948978;28;20114;-88
2023/05/20 08:21:53;;;;;;;5.70;4.40;;;;;;;21.76;47.47;102210.88;4950591;28;20047;-88
2023/05/20 08:24:41;;;;;;;;;;;;;;;;;;;;;
2023/05/20 08:27:39;;;;;;;6.80;4.32;;;;;;;21.49;43.66;102183.16;4949123;28;20534;-88
2023/05/20 08:30:23;;;;;;;6.35;4.32;;;;;;;21.44;44.15;102201.84;4941379;28;20035;-88
2023/05/20 08:33:11;;;;;;;8.52;4.72;;;;;;;21.54;44.70;102195.22;4933798;28;20043;-87
2023/05/20 08:35:50;;;;;;;6.35;4.32;;;;;;;21.39;44.95;102197.72;4948470;28;20094;-87
2023/05/20 08:41:51;;;;;;;8.18;4.80;;;;;;;20.84;45.40;102165.94;4890521;29;20112;-88
2023/05/20 08:44:29;;;;;;;4.85;4.05;;;;;;;20.93;44.27;102169.97;4957519;28;20205;-88
2023/05/20 08:47:04;;;;;;;8.32;4.47;;;;;;;20.81;42.81;102171.38;4950418;28;20500;-88
2023/05/20 08:50:00;;;;;;;17.92;4.38;;;;;;;20.52;44.45;102182.34;4948476;28;20192;-87
2023/05/20 08:52:55;;;;;;;7.38;3.83;;;;;;;20.30;44.78;102159.53;4950467;28;20041;-88
2023/05/20 08:56:02;;;;;;;;;;;;;;;;;;;;;
2023/05/20 08:58:51;;;;;;;6.60;4.10;;;;;;;20.18;45.85;102156.59;4964829;28;20031;-88
2023/05/20 09:01:37;;;;;;;7.85;3.97;;;;;;;20.19;45.31;102187.25;4949487;28;20352;-88
2023/05/20 09:04:25;;;;;;;8.13;4.20;;;;;;;19.93;44.63;102143.56;4947127;28;20451;-88
2023/05/20 09:07:54;;;;;;;;;;;;;;;;;;;;;
2023/05/20 09:10:39;;;;;;;8.68;4.20;;;;;;;19.64;44.94;102148.28;4949045;28;20043;-88
2023/05/20 09:13:05;;;;;;;;;;;;;;;19.80;46.71;102176.59;4929513;28;20649;-89
2023/05/20 09:15:48;;;;;;;8.52;4.00;;;;;;;19.72;46.85;102175.13;4927988;28;19925;-88
2023/05/20 09:18:25;;;;;;;12.60;4.07;;;;;;;19.50;46.49;102149.75;4930031;28;20538;-88
2023/05/20 09:21:06;;;;;;;7.63;3.97;;;;;;;19.62;48.05;102178.19;4932047;28;21117;-88
2023/05/20 09:24:15;;;;;;;;;;;;;;;;;;;;;
2023/05/20 09:27:14;;;;;;;6.43;4.25;;;;;;;19.63;48.26;102172.88;4948458;28;20039;-87
2023/05/20 09:30:13;;;;;;;6.47;4.15;;;;;;;19.67;47.16;102147.28;4946708;28;20465;-88
2023/05/20 09:32:57;;;;;;;7.57;4.18;;;;;;;19.98;47.97;102168.81;4905184;28;20110;-89
2023/05/20 09:35:48;;;;;;;7.93;4.72;;;;;;;19.79;46.69;102146.78;4946638;28;20046;-90
2023/05/20 09:38:36;;;;;;;5.47;4.03;;;;;;;19.66;47.14;102137.69;4937442;23;20087;-89
2023/05/20 09:41:34;;;;;;;10.25;4.22;;;;;;;19.57;48.43;102141.56;4964669;28;20761;-90
2023/05/20 09:44:18;;;;;;;6.95;4.45;;;;;;;19.49;47.07;102138.38;4962693;28;20087;-89
2023/05/20 09:47:29;;;;;;;8.20;4.82;;;;;;;19.72;49.03;102161.09;4948239;28;20046;-89
2023/05/20 09:49:57;;;;;;;7.80;4.32;;;;;;;19.97;47.30;102137.28;4953366;28;20047;-89
2023/05/20 09:52:47;;;;;;;;;;;;;;;;;;;;;
2023/05/20 09:55:47;;;;;;;6.63;4.07;;;;;;;19.88;48.09;102140.28;4952071;28;20041;-88
2023/05/20 09:58:23;;;;;;;6.13;3.80;;;;;;;19.75;47.41;102132.06;4947828;28;20130;-89
2023/05/20 10:01:31;;;;;;;7.18;4.10;;;;;;;19.62;46.90;102123.81;4965666;28;20527;-89
2023/05/20 10:04:08;;;;;;;5.95;3.75;;;;;;;19.50;48.61;102126.09;4960425;28;20043;-89
2023/05/20 10:07:12;;;;;;;7.50;3.70;;;;;;;19.71;49.44;102160.28;4947214;28;20058;-89
2023/05/20 10:10:48;;;;;;;6.28;4.07;;;;;;;19.86;47.02;102142.97;4964127;28;20035;-89
2023/05/20 10:14:01;;;;;;;5.93;4.03;;;;;;;20.04;48.49;102138.75;4926224;29;20083;-89
2023/05/20 10:17:07;;;;;;;7.45;4.18;;;;;;;19.70;48.27;102136.66;4940656;28;20042;-88
2023/05/20 10:20:05;;;;;;;5.10;3.60;;;;;;;19.28;49.21;102102.38;4946966;28;20035;-89
2023/05/20 10:26:40;;;;;;;8.25;3.80;;;;;;;19.22;50.83;102115.78;4935586;28;20038;-88
2023/05/20 10:30:22;;;;;;;5.93;3.95;;;;;;;19.30;48.95;102098.78;4963972;28;20100;-88
2023/05/20 10:33:18;;;;;;;8.73;4.05;;;;;;;19.51;48.16;102091.84;4952869;28;20448;-88
2023/05/20 10:36:06;;;;;;;8.00;3.97;;;;;;;19.87;49.84;102112.25;4944247;28;20043;-89
2023/05/20 10:39:11;;;;;;;5.55;4.10;;;;;;;19.89;48.19;102090.22;4947326;28;20047;-89
2023/05/20 10:41:45;;;;;;;;;;;;;;;20.02;48.59;102107.22;4947915;28;20090;-89
2023/05/20 10:44:32;;;;;;;5.68;3.90;;;;;;;20.07;47.85;102112.25;4965351;28;20027;-88
2023/05/20 10:47:18;;;;;;;7.03;3.78;;;;;;;20.21;48.22;102103.75;4944312;28;20036;-90
2023/05/20 10:50:05;;;;;;;5.88;3.58;;;;;;;20.31;51.30;102102.47;4945010;28;20547;-89
2023/05/20 10:53:06;;;;;;;5.90;3.85;;;;;;;20.13;47.46;102080.41;4949132;28;20049;-89
2023/05/20 10:56:06;;;;;;;7.72;4.10;;;;;;;20.03;47.25;102087.88;4960820;28;20600;-89
2023/05/20 10:59:03;;;;;;;6.45;3.97;;;;;;;20.13;48.38;102090.09;4944914;28;20042;-89
2023/05/20 11:01:53;;;;;;;5.90;3.85;;;;;;;20.10;48.46;102078.78;4947158;28;20038;-89
2023/05/20 11:04:33;;;;;;;7.45;3.95;;;;;;;19.83;48.18;102073.84;4949939;28;20035;-88
2023/05/20 11:10:23;;;;;;;7.53;3.45;;;;;;;19.88;51.83;102087.66;4920758;28;20514;-89
2023/05/20 11:13:00;;;;;;;6.93;3.58;;;;;;;19.98;49.73;102086.34;4948972;28;20043;-89
2023/05/20 11:16:04;;;;;;;6.25;3.50;;;;;;;19.79;49.46;102057.31;4952513;28;20031;-89
2023/05/20 11:19:11;;;;;;;5.10;3.60;;;;;;;19.98;48.53;102078.47;4955825;28;20043;-89
2023/05/20 11:21:47;;;;;;;5.40;3.40;;;;;;;19.69;47.66;102059.50;4952062;28;21029;-89
2023/05/20 11:25:04;;;;;;;4.78;3.30;;;;;;;19.56;49.32;102060.06;4952261;28;20046;-89
2023/05/20 11:27:54;;;;;;;4.43;3.20;;;;;;;19.44;48.95;102071.94;4952839;28;20073;-89
2023/05/20 11:30:31;;;;;;;11.18;3.50;;;;;;;19.39;49.13;102076.50;4951233;28;20519;-89
2023/05/20 11:33:13;;;;;;;10.10;3.63;;;;;;;19.25;48.91;102042.03;4951310;28;20081;-88
2023/05/20 11:35:56;;;;;;;6.18;3.50;;;;;;;19.34;49.32;102039.88;4959018;28;20027;-88
2023/05/20 11:38:51;;;;;;;4.07;3.10;;;;;;;19.57;50.03;102052.13;4942617;28;20042;-88
2023/05/20 11:45:01;;;;;;;5.97;3.15;;;;;;;20.15;48.12;102070.66;4951590;28;20047;-89
2023/05/20 11:47:35;;;;;;;4.90;3.10;;;;;;;20.15;46.94;102057.50;4933779;28;20039;-89
2023/05/20 12:21:08;;;;;;;4.55;3.30;;;;;;;20.58;47.24;102037.16;4960641;28;20098;-89
2023/05/20 12:24:13;;;;;;;4.35;3.13;;;;;;;20.41;46.98;102004.53;4909763;28;20062;-89
2023/05/20 12:27:11;;;;;;;6.95;3.30;;;;;;;20.37;47.64;102007.41;4936772;28;20106;-89
2023/05/20 12:32:57;;;;;;;4.47;3.15;;;;;;;20.51;48.54;102012.88;4950600;28;20035;-89
2023/05/20 12:35:45;;;;;;;8.15;3.13;;;;;;;20.45;47.82;102010.53;4943913;28;20505;-89
2023/05/20 12:38:16;;;;;;;6.45;3.50;;;;;;;20.52;50.26;102014.59;4925827;28;20067;-90
2023/05/20 12:40:55;;;;;;;5.35;3.30;;;;;;;20.52;49.80;102008.47;4953178;28;20846;-89
2023/05/20 12:43:33;;;;;;;7.53;3.42;;;;;;;20.45;48.42;102000.84;4945054;28;20094;-90
2023/05/20 12:46:17;;;;;;;5.72;3.53;;;;;;;20.37;48.42;101997.72;4947554;28;20190;-89
2023/05/20 12:55:13;;;;;;;5.68;2.92;;;;;;;20.81;53.10;102013.25;4946241;28;20504;-89
2023/05/20 12:57:43;;;;;;;5.05;3.20;;;;;;;20.79;47.89;101988.72;4948650;28;20053;-89
2023/05/20 13:00:16;;;;;;;7.22;3.40;;;;;;;20.76;48.96;102005.53;4945879;28;20094;-90
2023/05/20 13:02:53;;;;;;;4.28;3.00;;;;;;;20.94;50.04;102010.88;4948457;28;20042;-89
2023/05/20 13:05:30;;;;;;;4.05;3.10;;;;;;;20.72;48.79;102000.50;4939850;28;20054;-90
2023/05/20 13:11:32;;;;;;;4.68;3.30;;;;;;;20.73;47.29;102021.50;4948411;28;20725;-90
2023/05/20 13:14:24;;;;;;;5.65;3.85;;;;;;;20.50;48.02;101987.47;4947514;28;20118;-90
2023/05/20 13:17:15;;;;;;;5.13;3.40;;;;;;;20.80;49.03;102019.44;4946340;28;20031;-90
2023/05/20 13:19:58;;;;;;;6.38;3.30;;;;;;;20.69;47.64;101998.84;4945611;28;20101;-89
2023/05/20 13:22:32;;;;;;;5.15;3.55;;;;;;;20.54;48.17;101989.00;4949829;28;20042;-89
2023/05/20 13:25:18;;;;;;;4.32;3.15;;;;;;;20.64;48.20;102015.81;4946790;28;20546;-88
2023/05/20 13:27:58;;;;;;;4.55;3.00;;;;;;;20.52;49.64;102008.47;4942947;28;20052;-89
2023/05/20 13:30:54;;;;;;;6.30;3.38;;;;;;;20.58;49.04;102016.09;4943725;28;20051;-88
2023/05/20 13:33:30;;;;;;;3.95;3.20;;;;;;;20.54;48.52;101993.47;4943684;28;20062;-88
2023/05/20 13:36:10;;;;;;;7.93;3.65;;;;;;;20.59;48.14;102002.00;4945140;28;20043;-88
2023/05/20 13:38:52;;;;;;;6.70;3.40;;;;;;;20.58;47.48;101993.22;4944065;28;20051;-89
2023/05/20 13:41:57;;;;;;;;;;;;;;;;;;;;;
2023/05/20 13:44:29;;;;;;;;;;;;;;;20.86;48.50;102005.97;4927573;29;20521;-90
2023/05/20 13:46:58;;;;;;;5.90;3.47;;;;;;;20.64;47.65;101992.94;4918004;29;20005;-90
2023/05/20 13:49:37;;;;;;;6.57;3.53;;;;;;;20.51;48.86;101976.00;4920577;29;20567;-90
2023/05/20 13:52:30;;;;;;;5.07;3.60;;;;;;;20.48;47.71;101984.03;4918426;29;20619;-90
2023/05/20 13:55:09;;;;;;;6.80;3.60;;;;;;;20.47;46.79;101996.34;4913140;29;20040;-89
2023/05/20 13:57:52;;;;;;;;;;;;;;;;;;;;;
2023/05/20 14:00:45;;;;;;;;;;;;;;;;;;;;;
2023/05/20 14:03:36;;;;;;;6.88;3.42;;;;;;;20.45;47.46;101961.34;4930286;29;20054;-92
2023/05/20 14:06:13;;;;;;;5.47;3.28;;;;;;;20.38;47.78;101970.47;4916324;29;20607;-93
2023/05/20 14:08:51;;;;;;;6.82;3.10;;;;;;;20.48;49.59;101971.72;4919439;29;20986;-93
2023/05/20 14:11:21;;;;;;;7.10;3.13;;;;;;;20.52;49.31;101945.25;4907785;29;20048;-92
2023/05/20 14:14:39;;;;;;;5.03;3.53;;;;;;;20.55;47.59;101945.09;4930616;29;20122;-92
2023/05/20 14:17:18;;;;;;;6.47;3.28;;;;;;;20.73;49.55;101968.78;4934798;29;20047;-93
2023/05/20 14:20:07;;;;;;;4.00;3.40;;;;;;;20.71;48.00;101941.66;4937118;29;20055;-93
2023/05/20 14:22:45;;;;;;;4.82;3.45;;;;;;;20.76;49.68;101959.88;4935014;28;20048;-93
2023/05/20 14:25:27;;;;;;;6.05;3.40;;;;;;;20.61;48.85;101939.56;4918776;28;20071;-92
2023/05/20 14:28:12;;;;;;;4.70;3.30;;;;;;;20.71;48.52;101965.38;4918886;29;20040;-92
2023/05/20 14:30:53;;;;;;;;;;;;;;;;;;;;;
2023/05/20 14:33:35;;;;;;;4.47;3.40;;;;;;;20.68;48.92;101948.84;4931180;29;20043;-91
2023/05/20 14:36:15;;;;;;;4.63;3.40;;;;;;;20.54;49.49;101923.16;4936628;28;20043;-92
2023/05/20 14:38:49;;;;;;;6.65;3.40;;;;;;;20.67;48.48;101948.00;4918242;28;20102;-92
2023/05/20 14:41:33;;;;;;;4.53;3.20;;;;;;;20.68;48.94;101954.97;4948258;28;20062;-92
2023/05/20 14:44:07;;;;;;;6.78;3.20;;;;;;;20.67;50.46;101936.63;4948982;28;20085;-91
2023/05/20 14:46:44;;;;;;;5.38;4.03;;;;;;;20.63;48.29;101941.16;4961367;28;20035;-92
2023/05/20 14:49:48;;;;;;;6.10;3.20;;;;;;;20.58;47.86;101931.78;4952507;28;20078;-93
2023/05/20 14:52:42;;;;;;;4.50;3.40;;;;;;;20.66;48.60;101932.28;4968103;28;20038;-92
2023/05/20 14:55:45;;;;;;;5.13;3.35;;;;;;;20.71;47.76;101933.75;4951487;28;20039;-94
2023/05/20 14:58:38;;;;;;;4.07;3.15;;;;;;;20.67;49.05;101931.34;4950997;28;20409;-92
2023/05/20 15:01:10;;;;;;;5.40;3.30;;;;;;;20.63;47.89;101925.34;4945432;28;20833;-93
2023/05/20 15:03:47;;;;;;;4.43;3.65;;;;;;;20.46;46.47;101904.25;4951290;28;20393;-93
2023/05/20 15:06:46;;;;;;;6.43;3.00;;;;;;;20.43;48.45;101909.66;4968073;28;20366;-92
2023/05/20 15:09:32;;;;;;;5.32;3.50;;;;;;;20.56;48.03;101929.22;4954556;28;20050;-92
2023/05/20 15:12:14;;;;;;;3.92;3.00;;;;;;;20.49;48.10;101904.94;4952596;28;20042;-93
2023/05/20 15:14:58;;;;;;;8.27;3.05;;;;;;;20.61;48.37;101910.56;4951580;28;20054;-93
2023/05/20 15:17:36;;;;;;;6.95;6.32;;;;;;;20.59;48.28;101910.63;4952004;28;20045;-91
2023/05/20 15:20:20;;;;;;;5.30;3.40;;;;;;;20.42;49.26;101877.19;4947240;28;20066;-93
2023/05/20 15:23:02;;;;;;;146.15;106.03;;;;;;;20.55;48.15;101900.28;4949491;28;20051;-92
2023/05/20 15:25:52;;;;;;;;;;;;;;;;;;;;;
2023/05/20 15:28:39;;;;;;;7.35;3.70;;;;;;;20.44;47.04;101892.94;4951728;28;20041;-92
2023/05/20 15:34:26;;;;;;;5.07;3.50;;;;;;;20.54;47.03;101901.25;4954133;28;20105;-93
2023/05/20 15:36:59;;;;;;;8.60;3.63;;;;;;;20.48;47.33;101902.38;4943892;28;20046;-91
2023/05/20 15:39:37;;;;;;;4.28;3.40;;;;;;;20.40;46.52;101908.00;4948176;28;20440;-92
2023/05/20 15:42:17;;;;;;;6.55;3.35;;;;;;;20.22;48.96;101874.63;4949848;28;20047;-92
2023/05/20 15:44:51;;;;;;;3.47;2.85;;;;;;;20.35;47.01;101899.47;4948353;28;20573;-93
2023/05/20 15:47:32;;;;;;;5.22;3.15;;;;;;;20.31;48.08;101883.88;4950997;28;20046;-92
2023/05/20 15:50:26;;;;;;;6.05;2.95;;;;;;;20.18;49.59;101865.19;4950825;28;20046;-93
2023/05/20 15:53:55;;;;;;;5.85;3.17;;;;;;;20.23;48.06;101891.28;4948113;28;20563;-94
2023/05/20 15:56:55;;;;;;;;;;;;;;;;;;;;;
2023/05/20 16:02:55;;;;;;;3.95;3.10;;;;;;;19.78;47.63;101881.13;4952308;28;20043;-92
2023/05/20 16:05:54;;;;;;;3.88;3.15;;;;;;;19.55;49.24;101848.78;4947855;28;20412;-91
2023/05/20 16:09:03;;;;;;;4.97;3.28;;;;;;;19.53;47.94;101852.41;4969433;28;20202;-91
2023/05/20 16:12:17;;;;;;;5.50;3.10;;;;;;;19.68;49.46;101863.09;4940157;28;20039;-92
2023/05/20 16:15:01;;;;;;;6.82;3.13;;;;;;;19.67;48.62;101836.84;4944698;28;20039;-92
2023/05/20 16:18:04;;;;;;;;;;;;;;;;;;;;;
2023/05/20 16:20:48;;;;;;;4.97;3.10;;;;;;;19.89;48.76;101834.09;4950205;28;20049;-92
2023/05/20 16:26:49;;;;;;;6.03;3.47;;;;;;;20.24;49.64;101864.88;4949941;28;19926;-92
2023/05/20 16:30:00;;;;;;;8.13;2.78;;;;;;;20.30;47.38;101846.16;4949777;28;20039;-96
2023/05/20 16:32:40;;;;;;;4.53;2.83;;;;;;;20.36;46.87;101868.72;4948625;28;20043;-94
2023/05/20 16:35:32;;;;;;;6.00;2.55;;;;;;;20.17;47.07;101867.88;4949040;28;20041;-93
2023/05/20 16:40:49;;;;;;;6.28;2.70;;;;;;;19.82;47.64;101866.88;4731656;26;20140;-91
2023/05/20 16:43:52;;;;;;;6.70;2.67;;;;;;;19.80;48.13;101866.09;4967125;28;20047;-92
2023/05/20 16:46:27;;;;;;;5.47;2.70;;;;;;;19.66;47.84;101859.69;4967528;28;20093;-94
2023/05/20 16:49:28;;;;;;;5.28;2.50;;;;;;;19.55;48.97;101833.00;4967980;28;20226;-92
2023/05/20 16:52:07;;;;;;;5.95;2.47;;;;;;;19.74;50.33;101859.34;4967322;28;20031;-91
2023/05/20 16:58:21;;;;;;;6.07;2.63;;;;;;;19.82;48.27;101867.72;4947275;28;20053;-94
2023/05/20 17:01:14;;;;;;;6.07;2.83;;;;;;;19.67;48.29;101868.44;4970136;28;20043;-92
2023/05/20 17:04:01;;;;;;;4.82;2.70;;;;;;;19.51;49.97;101870.06;4965705;28;20031;-92
2023/05/20 17:06:50;;;;;;;2.88;2.58;;;;;;;19.32;49.11;101872.59;4964969;28;20498;-93
2023/05/20 17:12:31;;;;;;;7.17;2.70;;;;;;;19.02;48.33;101843.22;4929427;29;20425;-93
2023/05/20 17:18:54;;;;;;;;;;;;;;;;;;;;;
2023/05/20 17:21:38;;;;;;;5.20;2.50;;;;;;;19.24;48.77;101865.03;4969558;28;20057;-95
2023/05/20 17:24:40;;;;;;;7.33;2.97;;;;;;;19.23;48.89;101849.34;4967309;28;20039;-93
2023/05/20 17:27:25;;;;;;;5.25;2.78;;;;;;;19.24;49.16;101870.28;4968553;28;20053;-95
2023/05/20 17:30:22;;;;;;;4.28;2.70;;;;;;;19.10;49.48;101861.31;4965819;28;20054;-94
2023/05/20 17:33:42;;;;;;;7.28;3.10;;;;;;;19.16;49.89;101903.09;4963716;28;20058;-94
2023/05/20 17:36:21;;;;;;;3.67;2.70;;;;;;;19.03;50.36;101901.91;4968794;28;20499;-94
2023/05/20 17:39:05;;;;;;;7.18;3.00;;;;;;;18.81;49.97;101887.03;4958853;28;20043;-95
2023/05/20 17:45:47;;;;;;;4.20;2.50;;;;;;;18.85;50.42;101914.88;4951880;28;20038;-93
2023/05/20 17:48:48;;;;;;;3.20;2.67;;;;;;;18.85;50.21;101914.88;4934358;28;20042;-94
2023/05/20 17:52:09;;;;;;;4.85;2.55;;;;;;;18.86;51.20;101903.44;4937001;28;20080;-94
2023/05/20 17:58:36;;;;;;;4.18;2.60;;;;;;;18.67;49.82;101892.00;4819555;29;20057;-93
2023/05/20 18:01:30;;;;;;;;;;;;;;;18.80;50.42;101908.97;4808976;29;20105;-93
2023/05/20 18:17:13;;;;;;;4.78;3.17;;;;;;;18.35;51.26;101918.66;4858626;29;20029;-94
2023/05/20 18:26:48;;;;;;;4.75;2.55;;;;;;;18.11;52.22;101916.03;4949521;28;20528;-94
2023/05/20 18:32:28;;;;;;;4.43;2.70;;;;;;;17.80;53.05;101876.13;4943972;28;20045;-95
2023/05/20 18:35:16;;;;;;;2.63;2.40;;;;;;;17.91;52.37;101905.44;4936143;28;20046;-96